createdAt,value
2023-03-03T00:01:38.048Z,4.89
2023-03-03T00:04:07.079Z,4.91
2023-03-03T00:06:36.253Z,4.87
2023-03-03T00:09:05.353Z,4.61
2023-03-03T00:11:34.410Z,4.70
2023-03-03T00:14:03.496Z,4.77
2023-03-03T00:16:38.967Z,4.81
2023-03-03T00:19:16.095Z,4.54
2023-03-03T00:21:47.993Z,4.63
2023-03-03T00:24:21.033Z,4.68
2023-03-03T00:26:51.670Z,4.74
2023-03-03T00:29:37.724Z,4.65
2023-03-03T00:32:29.471Z,4.78
2023-03-03T00:35:18.674Z,4.78
2023-03-03T00:37:49.290Z,4.88
2023-03-03T00:40:24.332Z,4.72
2023-03-03T00:42:55.981Z,4.87
2023-03-03T00:45:30.357Z,4.91
2023-03-03T00:48:03.590Z,4.95
2023-03-03T00:50:33.887Z,5.03
2023-03-03T00:53:08.411Z,4.99
2023-03-03T00:55:37.542Z,5.03
2023-03-03T00:58:06.649Z,5.08
2023-03-03T01:00:42.709Z,5.07
2023-03-03T01:03:17.653Z,5.10
2023-03-03T01:05:46.813Z,5.13
2023-03-03T01:08:15.908Z,5.21
2023-03-03T01:10:47.879Z,5.26
2023-03-03T01:13:17.404Z,5.26
2023-03-03T01:15:58.666Z,5.33
2023-03-03T01:18:29.921Z,5.35
2023-03-03T01:20:59.149Z,5.36
2023-03-03T01:23:28.306Z,5.41
2023-03-03T01:25:58.301Z,5.39
2023-03-03T01:28:27.695Z,5.48
2023-03-03T01:30:56.696Z,5.56
2023-03-03T01:33:26.691Z,5.54
2023-03-03T01:35:58.031Z,5.54
2023-03-03T01:38:27.268Z,5.62
2023-03-03T01:40:57.366Z,5.62
2023-03-03T01:43:29.027Z,5.54
2023-03-03T01:46:40.485Z,5.56
2023-03-03T01:49:15.753Z,5.55
2023-03-03T01:51:50.548Z,5.58
2023-03-03T01:54:26.132Z,5.55
2023-03-03T01:56:59.319Z,5.50
2023-03-03T01:59:33.156Z,5.46
2023-03-03T02:02:02.747Z,5.43
2023-03-03T02:04:32.944Z,5.28
2023-03-03T02:07:10.213Z,5.32
2023-03-03T02:09:51.029Z,5.32
2023-03-03T02:12:22.117Z,5.18
2023-03-03T02:15:19.330Z,5.20
2023-03-03T02:17:49.814Z,5.33
2023-03-03T02:20:32.310Z,5.20
2023-03-03T02:23:09.738Z,5.33
2023-03-03T02:25:46.761Z,5.36
2023-03-03T02:28:17.272Z,5.25
2023-03-03T02:30:46.470Z,5.29
2023-03-03T02:33:16.001Z,5.31
2023-03-03T02:35:45.033Z,5.31
2023-03-03T02:38:23.355Z,5.18
2023-03-03T02:41:03.448Z,5.27
2023-03-03T02:43:41.174Z,5.22
2023-03-03T02:46:10.410Z,5.20
2023-03-03T02:48:39.411Z,5.21
2023-03-03T02:51:08.838Z,5.25
2023-03-03T02:53:37.712Z,5.30
2023-03-03T02:56:09.680Z,5.32
2023-03-03T02:58:40.212Z,5.40
2023-03-03T03:01:10.158Z,5.48
2023-03-03T03:03:39.766Z,5.16
2023-03-03T03:06:09.879Z,5.24
2023-03-03T03:08:39.708Z,5.26
2023-03-03T03:11:09.072Z,5.30
2023-03-03T03:13:39.711Z,5.37
2023-03-03T03:16:09.693Z,5.36
2023-03-03T03:18:38.822Z,5.35
2023-03-03T03:21:10.302Z,5.46
2023-03-03T03:23:41.379Z,5.43
2023-03-03T03:26:10.928Z,5.14
2023-03-03T03:28:41.914Z,5.32
2023-03-03T03:31:11.619Z,5.34
2023-03-03T03:33:40.938Z,5.22
2023-03-03T03:36:10.617Z,5.08
2023-03-03T03:38:40.162Z,5.08
2023-03-03T03:41:10.858Z,4.73
2023-03-03T03:43:41.975Z,4.84
2023-03-03T03:46:11.361Z,4.80
2023-03-03T03:48:40.717Z,4.87
2023-03-03T03:51:13.500Z,4.61
2023-03-03T03:53:43.624Z,4.69
2023-03-03T03:56:12.667Z,4.53
2023-03-03T03:58:44.291Z,4.50
2023-03-03T04:01:16.405Z,4.64
2023-03-03T04:03:50.499Z,4.62
2023-03-03T04:06:22.870Z,4.70
2023-03-03T04:08:53.091Z,4.75
2023-03-03T04:11:24.644Z,4.75
2023-03-03T04:13:55.898Z,4.84
2023-03-03T04:16:25.215Z,4.88
2023-03-03T04:18:54.364Z,4.72
2023-03-03T04:21:24.526Z,4.71
2023-03-03T04:23:56.020Z,4.70
2023-03-03T04:26:25.265Z,4.73
2023-03-03T04:28:56.348Z,4.84
2023-03-03T04:31:26.217Z,4.71
2023-03-03T04:33:56.158Z,4.71
2023-03-03T04:36:26.151Z,4.54
2023-03-03T04:38:55.212Z,4.71
2023-03-03T04:41:25.491Z,4.67
2023-03-03T04:43:56.366Z,4.77
2023-03-03T04:46:25.621Z,4.55
2023-03-03T04:48:55.712Z,4.49
2023-03-03T04:51:25.999Z,4.35
2023-03-03T04:53:55.215Z,4.58
2023-03-03T04:56:24.534Z,4.51
2023-03-03T04:58:53.736Z,4.64
2023-03-03T05:01:24.275Z,4.58
2023-03-03T05:03:53.357Z,4.68
2023-03-03T05:06:22.496Z,4.80
2023-03-03T05:08:51.558Z,4.87
2023-03-03T05:11:20.695Z,4.69
2023-03-03T05:13:50.366Z,4.88
2023-03-03T05:16:19.450Z,4.88
2023-03-03T05:18:52.983Z,4.72
2023-03-03T05:21:22.258Z,4.69
2023-03-03T05:23:51.377Z,4.51
2023-03-03T05:26:20.338Z,4.26
2023-03-03T05:28:49.399Z,4.48
2023-03-03T05:31:18.433Z,4.47
2023-03-03T05:33:47.538Z,4.25
2023-03-03T05:36:17.924Z,4.50
2023-03-03T05:38:48.013Z,4.06
2023-03-03T05:41:17.087Z,4.35
2023-03-03T05:43:46.174Z,4.44
2023-03-03T05:46:18.227Z,4.42
2023-03-03T05:48:48.072Z,4.43
2023-03-03T05:51:18.572Z,4.23
2023-03-03T05:53:47.780Z,4.34
2023-03-03T05:56:16.865Z,4.54
2023-03-03T05:58:46.002Z,4.47
2023-03-03T06:01:14.981Z,4.53
2023-03-03T06:03:44.103Z,4.56
2023-03-03T06:06:14.368Z,4.62
2023-03-03T06:08:44.990Z,4.71
2023-03-03T06:11:16.889Z,4.72
2023-03-03T06:13:46.103Z,4.59
2023-03-03T06:16:15.257Z,4.59
2023-03-03T06:18:44.419Z,4.56
2023-03-03T06:21:14.421Z,4.50
2023-03-03T06:23:44.970Z,4.55
2023-03-03T06:26:14.024Z,4.63
2023-03-03T06:28:43.172Z,4.62
2023-03-03T06:31:12.967Z,4.63
2023-03-03T06:33:42.916Z,4.63
2023-03-03T06:36:12.587Z,4.63
2023-03-03T06:38:41.631Z,4.61
2023-03-03T06:41:13.049Z,4.59
2023-03-03T06:43:42.277Z,4.67
2023-03-03T06:46:12.106Z,4.67
2023-03-03T06:48:42.170Z,4.73
2023-03-03T06:51:27.013Z,4.77
2023-03-03T06:54:03.109Z,4.85
2023-03-03T06:56:37.551Z,4.72
2023-03-03T06:59:14.020Z,4.61
2023-03-03T07:01:44.380Z,4.54
2023-03-03T07:04:25.863Z,4.57
2023-03-03T07:06:55.080Z,4.60
2023-03-03T07:09:26.014Z,4.63
2023-03-03T07:12:03.947Z,4.74
2023-03-03T07:14:33.109Z,4.96
2023-03-03T07:17:06.479Z,4.96
2023-03-03T07:19:37.171Z,4.83
2023-03-03T07:22:18.501Z,4.93
2023-03-03T07:24:50.774Z,4.92
2023-03-03T07:27:25.942Z,5.14
2023-03-03T07:29:57.337Z,4.92
2023-03-03T07:32:29.992Z,5.04
2023-03-03T07:34:59.139Z,5.07
2023-03-03T07:37:36.465Z,5.22
2023-03-03T07:40:27.196Z,5.06
2023-03-03T07:42:57.755Z,5.01
2023-03-03T07:45:38.218Z,5.10
2023-03-03T07:48:17.427Z,5.24
2023-03-03T07:50:47.853Z,5.26
2023-03-03T07:53:27.091Z,5.43
2023-03-03T07:55:59.000Z,5.50
2023-03-03T07:58:39.331Z,5.58
2023-03-03T08:01:40.733Z,5.47
2023-03-03T08:04:23.507Z,5.57
2023-03-03T08:06:57.768Z,5.66
2023-03-03T08:09:40.759Z,5.43
2023-03-03T08:12:42.155Z,5.52
2023-03-03T08:15:21.529Z,5.56
2023-03-03T08:17:52.334Z,5.56
2023-03-03T08:20:44.856Z,5.46
2023-03-03T08:23:14.670Z,5.55
2023-03-03T08:25:45.711Z,5.60
2023-03-03T08:28:15.726Z,5.64
2023-03-03T08:30:48.428Z,5.56
2023-03-03T08:33:17.802Z,5.50
2023-03-03T08:35:47.430Z,5.29
2023-03-03T08:38:19.184Z,5.47
2023-03-03T08:40:49.787Z,5.66
2023-03-03T08:43:23.023Z,5.80
2023-03-03T08:45:54.610Z,5.86
2023-03-03T08:48:23.690Z,5.97
2023-03-03T08:50:53.414Z,5.93
2023-03-03T08:53:24.368Z,6.04
2023-03-03T08:55:55.378Z,5.86
2023-03-03T08:58:34.666Z,6.01
2023-03-03T09:01:06.924Z,5.98
2023-03-03T09:03:36.750Z,6.05
2023-03-03T09:06:06.163Z,6.00
2023-03-03T09:08:35.338Z,6.06
2023-03-03T09:11:04.519Z,6.22
2023-03-03T09:13:33.508Z,6.06
2023-03-03T09:16:02.638Z,6.16
2023-03-03T09:18:38.342Z,6.02
2023-03-03T09:21:24.094Z,6.25
2023-03-03T09:23:57.575Z,6.43
2023-03-03T09:26:31.360Z,6.14
2023-03-03T09:29:19.616Z,6.35
2023-03-03T09:31:52.551Z,6.21
2023-03-03T09:34:26.369Z,6.53
2023-03-03T09:36:57.187Z,6.17
2023-03-03T09:39:27.642Z,6.41
2023-03-03T09:42:27.950Z,6.30
2023-03-03T09:45:21.029Z,6.30
2023-03-03T09:48:17.322Z,6.36
2023-03-03T09:50:57.037Z,6.62
2023-03-03T09:53:39.121Z,6.60
2023-03-03T09:56:18.313Z,6.59
2023-03-03T09:59:03.404Z,6.72
2023-03-03T10:01:50.430Z,6.77
2023-03-03T10:04:39.852Z,6.64
2023-03-03T10:07:25.758Z,6.73
2023-03-03T10:10:09.581Z,6.86
2023-03-03T10:12:49.369Z,6.82
2023-03-03T10:15:32.395Z,6.88
2023-03-03T10:18:10.307Z,6.84
2023-03-03T10:20:52.288Z,6.97
2023-03-03T10:23:34.333Z,6.93
2023-03-03T10:26:11.726Z,6.85
2023-03-03T10:29:22.171Z,6.49
2023-03-03T10:32:02.599Z,6.52
2023-03-03T10:34:54.245Z,6.39
2023-03-03T10:37:30.678Z,6.42
2023-03-03T10:40:15.267Z,6.50
2023-03-03T10:43:04.463Z,6.54
2023-03-03T10:46:04.929Z,6.72
2023-03-03T10:48:58.026Z,6.47
2023-03-03T10:51:34.516Z,6.39
2023-03-03T10:54:19.560Z,6.51
2023-03-03T10:57:03.554Z,6.47
2023-03-03T10:59:49.518Z,6.63
2023-03-03T11:02:24.166Z,6.48
2023-03-03T11:05:08.607Z,6.63
2023-03-03T11:07:42.352Z,6.74
2023-03-03T11:10:34.414Z,6.81
2023-03-03T11:13:18.121Z,6.91
2023-03-03T11:15:57.352Z,6.54
2023-03-03T11:18:36.661Z,6.84
2023-03-03T11:21:15.979Z,6.96
2023-03-03T11:24:10.816Z,6.95
2023-03-03T11:26:57.117Z,6.97
2023-03-03T11:29:49.127Z,6.86
2023-03-03T11:32:29.008Z,7.00
2023-03-03T11:35:10.803Z,7.06
2023-03-03T11:37:47.201Z,6.99
2023-03-03T11:40:23.018Z,7.04
2023-03-03T11:43:03.330Z,7.09
2023-03-03T11:45:42.149Z,7.07
2023-03-03T11:48:19.696Z,7.08
2023-03-03T11:50:57.075Z,7.15
2023-03-03T11:53:56.237Z,7.10
2023-03-03T11:56:28.828Z,7.07
2023-03-03T11:59:17.052Z,7.17
2023-03-03T12:01:54.033Z,7.14
2023-03-03T12:04:31.097Z,7.15
2023-03-03T12:07:19.452Z,7.07
2023-03-03T12:10:04.668Z,6.85
2023-03-03T12:12:40.054Z,7.01
2023-03-03T12:15:21.637Z,7.01
2023-03-03T12:18:21.587Z,6.90
2023-03-03T12:21:07.560Z,6.91
2023-03-03T12:23:52.564Z,6.88
2023-03-03T12:26:31.117Z,6.85
2023-03-03T12:29:04.793Z,6.75
2023-03-03T12:31:47.210Z,6.71
2023-03-03T12:34:26.264Z,6.64
2023-03-03T12:37:19.598Z,6.63
2023-03-03T12:39:57.794Z,6.66
2023-03-03T12:42:39.854Z,6.52
2023-03-03T12:45:25.658Z,6.51
2023-03-03T12:48:01.888Z,6.49
2023-03-03T12:50:45.844Z,6.54
2023-03-03T12:53:32.186Z,6.59
2023-03-03T12:56:06.178Z,6.68
2023-03-03T12:58:49.785Z,6.72
2023-03-03T13:01:30.622Z,6.81
2023-03-03T13:04:07.163Z,6.91
2023-03-03T13:06:42.686Z,6.93
2023-03-03T13:09:30.171Z,7.03
2023-03-03T13:12:16.930Z,7.06
2023-03-03T13:14:53.349Z,7.00
2023-03-03T13:17:29.261Z,7.09
2023-03-03T13:20:01.683Z,7.26
2023-03-03T13:22:41.666Z,7.23
2023-03-03T13:25:36.599Z,7.37
2023-03-03T13:28:15.723Z,7.33
2023-03-03T13:30:50.825Z,7.19
2023-03-03T13:33:28.425Z,7.28
2023-03-03T13:36:01.703Z,7.40
2023-03-03T13:38:34.546Z,7.44
2023-03-03T13:41:10.298Z,7.48
2023-03-03T13:43:47.337Z,7.60
2023-03-03T13:46:27.110Z,7.66
2023-03-03T13:49:25.927Z,7.56
2023-03-03T13:52:02.358Z,7.44
2023-03-03T13:54:53.708Z,7.57
2023-03-03T13:57:41.362Z,7.63
2023-03-03T14:00:23.028Z,7.58
2023-03-03T14:03:11.979Z,7.68
2023-03-03T14:05:45.884Z,7.48
2023-03-03T14:08:27.343Z,7.50
2023-03-03T14:11:11.934Z,7.65
2023-03-03T14:13:52.816Z,7.41
2023-03-03T14:16:35.100Z,7.53
2023-03-03T14:19:08.267Z,7.53
2023-03-03T14:21:42.293Z,7.59
2023-03-03T14:24:18.391Z,7.65
2023-03-03T14:26:51.622Z,7.61
2023-03-03T14:29:34.128Z,7.62
2023-03-03T14:32:07.834Z,7.56
2023-03-03T14:34:40.006Z,7.59
2023-03-03T14:37:27.958Z,7.53
2023-03-03T14:40:17.842Z,7.64
2023-03-03T14:42:57.377Z,7.57
2023-03-03T14:45:36.418Z,7.57
2023-03-03T14:48:17.451Z,7.61
2023-03-03T14:50:52.158Z,7.54
2023-03-03T14:53:34.581Z,7.49
2023-03-03T14:56:22.739Z,7.50
2023-03-03T14:58:54.692Z,7.52
2023-03-03T15:01:32.456Z,7.53
2023-03-03T15:04:03.666Z,7.45
2023-03-03T15:06:37.258Z,7.43
2023-03-03T15:09:36.814Z,7.43
2023-03-03T15:12:20.721Z,7.39
2023-03-03T15:14:54.052Z,7.37
2023-03-03T15:17:27.694Z,7.44
2023-03-03T15:20:01.709Z,7.38
2023-03-03T15:22:49.942Z,7.28
2023-03-03T15:25:41.977Z,7.28
2023-03-03T15:28:26.451Z,7.39
2023-03-03T15:31:04.743Z,7.38
2023-03-03T15:33:40.412Z,7.44
2023-03-03T15:36:16.623Z,7.43
2023-03-03T15:39:02.727Z,7.49
2023-03-03T15:41:46.229Z,7.43
2023-03-03T15:44:18.247Z,7.46
2023-03-03T15:47:09.711Z,7.43
2023-03-03T15:50:17.652Z,7.45
2023-03-03T15:52:58.232Z,7.40
2023-03-03T15:55:47.065Z,7.40
2023-03-03T15:58:48.159Z,7.42
2023-03-03T16:01:27.271Z,7.42
2023-03-03T16:04:02.329Z,7.44
2023-03-03T16:06:42.604Z,7.39
2023-03-03T16:09:24.785Z,7.36
2023-03-03T16:12:02.352Z,7.39
2023-03-03T16:14:52.971Z,7.38
2023-03-03T16:17:35.069Z,7.32
2023-03-03T16:20:17.447Z,7.28
2023-03-03T16:23:25.070Z,7.32
2023-03-03T16:26:02.338Z,7.31
2023-03-03T16:28:43.292Z,7.26
2023-03-03T16:31:18.887Z,7.31
2023-03-03T16:33:57.498Z,7.28
2023-03-03T16:36:37.836Z,7.26
2023-03-03T16:39:14.684Z,7.27
2023-03-03T16:41:52.784Z,7.25
2023-03-03T16:44:38.835Z,7.25
2023-03-03T16:47:20.701Z,7.19
2023-03-03T16:49:58.590Z,7.27
2023-03-03T16:52:39.669Z,7.28
2023-03-03T16:55:17.107Z,7.25
2023-03-03T16:57:58.873Z,7.29
2023-03-03T17:00:31.647Z,7.29
2023-03-03T17:03:29.250Z,7.29
2023-03-03T17:06:05.470Z,7.29
2023-03-03T17:09:20.434Z,7.28
2023-03-03T17:12:21.147Z,7.27
2023-03-03T17:15:03.534Z,7.23
2023-03-03T17:17:41.044Z,7.26
2023-03-03T17:20:21.076Z,7.31
2023-03-03T17:23:04.417Z,7.31
2023-03-03T17:25:45.838Z,7.27
2023-03-03T17:28:26.279Z,7.22
2023-03-03T17:31:03.059Z,7.19
2023-03-03T17:33:50.402Z,7.19
2023-03-03T17:36:32.987Z,7.19
2023-03-03T17:39:12.971Z,7.18
2023-03-03T17:41:50.332Z,7.19
2023-03-03T17:44:26.288Z,7.23
2023-03-03T17:46:58.424Z,7.19
2023-03-03T17:49:49.174Z,7.21
2023-03-03T17:52:53.530Z,7.21
2023-03-03T17:56:12.667Z,7.24
2023-03-03T17:59:14.921Z,7.16
2023-03-03T18:02:09.897Z,7.11
2023-03-03T18:04:57.084Z,7.12
2023-03-03T18:08:00.048Z,7.19
2023-03-03T18:10:54.420Z,7.20
2023-03-03T18:13:52.000Z,7.20
2023-03-03T18:16:35.973Z,7.18
2023-03-03T18:19:23.802Z,7.07
2023-03-03T18:21:59.920Z,7.14
2023-03-03T18:24:34.835Z,7.05
2023-03-03T18:27:30.162Z,7.02
2023-03-03T18:30:28.457Z,6.91
2023-03-03T18:33:13.354Z,6.94
2023-03-03T18:35:45.795Z,6.91
2023-03-03T18:38:33.134Z,6.90
2023-03-03T18:41:04.696Z,6.89
2023-03-03T18:43:54.975Z,6.91
2023-03-03T18:46:49.962Z,6.84
2023-03-03T18:49:20.645Z,6.77
2023-03-03T18:51:54.067Z,6.92
2023-03-03T18:54:33.579Z,6.88
2023-03-03T18:57:20.507Z,6.88
2023-03-03T18:59:58.947Z,6.85
2023-03-03T19:02:39.195Z,6.77
2023-03-03T19:05:24.714Z,6.72
2023-03-03T19:08:04.819Z,6.85
2023-03-03T19:10:53.152Z,6.74
2023-03-03T19:13:53.697Z,6.77
2023-03-03T19:16:38.771Z,6.75
2023-03-03T19:19:14.584Z,6.77
2023-03-03T19:21:50.130Z,6.69
2023-03-03T19:24:35.336Z,6.64
2023-03-03T19:27:16.973Z,6.64
2023-03-03T19:30:24.337Z,6.71
2023-03-03T19:33:13.752Z,6.71
2023-03-03T19:35:56.298Z,6.80
2023-03-03T19:38:34.992Z,6.66
2023-03-03T19:41:21.050Z,6.67
2023-03-03T19:44:00.933Z,6.67
2023-03-03T19:46:45.219Z,6.72
2023-03-03T19:49:23.138Z,6.78
2023-03-03T19:51:58.581Z,6.72
2023-03-03T19:54:46.145Z,6.78
2023-03-03T19:57:36.031Z,6.85
2023-03-03T20:00:17.037Z,6.92
2023-03-03T20:02:56.298Z,6.97
2023-03-03T20:05:34.656Z,7.02
2023-03-03T20:08:12.769Z,7.02
2023-03-03T20:10:50.249Z,6.93
2023-03-03T20:13:39.284Z,7.05
2023-03-03T20:16:22.905Z,7.01
2023-03-03T20:19:07.134Z,7.04
2023-03-03T20:21:40.403Z,7.01
2023-03-03T20:24:26.419Z,6.97
2023-03-03T20:27:01.574Z,6.77
2023-03-03T20:29:58.552Z,6.95
2023-03-03T20:32:39.857Z,6.92
2023-03-03T20:35:23.567Z,6.92
2023-03-03T20:38:05.366Z,6.88
2023-03-03T20:40:39.413Z,6.87
2023-03-03T20:43:25.415Z,6.84
2023-03-03T20:46:08.074Z,6.80
2023-03-03T20:48:51.844Z,6.77
2023-03-03T20:51:29.880Z,6.69
2023-03-03T20:54:07.031Z,6.61
2023-03-03T20:56:44.080Z,6.68
2023-03-03T20:59:22.152Z,6.66
2023-03-03T21:02:01.879Z,6.68
2023-03-03T21:04:34.073Z,6.56
2023-03-03T21:07:05.283Z,6.62
2023-03-03T21:09:36.240Z,6.51
2023-03-03T21:12:12.880Z,6.39
2023-03-03T21:14:42.143Z,6.39
2023-03-03T21:17:27.002Z,6.43
2023-03-03T21:19:56.055Z,6.33
2023-03-03T21:22:25.824Z,6.27
2023-03-03T21:24:57.742Z,6.44
2023-03-03T21:27:30.276Z,6.44
2023-03-03T21:30:14.045Z,6.43
2023-03-03T21:32:46.638Z,6.53
2023-03-03T21:35:18.099Z,6.59
2023-03-03T21:37:53.907Z,6.60
2023-03-03T21:40:25.558Z,6.64
2023-03-03T21:42:56.139Z,6.66
2023-03-03T21:45:26.327Z,6.63
2023-03-03T21:48:00.213Z,6.64
2023-03-03T21:50:33.005Z,6.57
2023-03-03T21:53:02.067Z,6.62
2023-03-03T21:55:31.281Z,6.73
2023-03-03T21:58:00.241Z,6.74
2023-03-03T22:00:30.433Z,6.77
2023-03-03T22:03:01.350Z,6.68
2023-03-03T22:05:30.826Z,6.70
2023-03-03T22:07:59.911Z,6.69
2023-03-03T22:10:29.162Z,6.72
2023-03-03T22:12:58.586Z,6.66
2023-03-03T22:15:28.081Z,6.62
2023-03-03T22:17:57.099Z,6.64
2023-03-03T22:20:27.660Z,6.51
2023-03-03T22:22:56.617Z,6.42
2023-03-03T22:25:25.523Z,6.52
2023-03-03T22:27:55.200Z,6.56
2023-03-03T22:30:24.285Z,6.59
2023-03-03T22:32:54.891Z,6.42
2023-03-03T22:35:24.330Z,6.40
2023-03-03T22:37:54.738Z,6.43
2023-03-03T22:40:23.939Z,6.48
2023-03-03T22:42:53.097Z,6.51
2023-03-03T22:45:22.213Z,6.53
2023-03-03T22:47:51.356Z,6.49
2023-03-03T22:50:20.848Z,6.49
2023-03-03T22:52:49.898Z,6.50
2023-03-03T22:55:20.385Z,6.54
2023-03-03T22:57:49.998Z,6.52
2023-03-03T23:00:21.660Z,6.53
2023-03-03T23:02:51.450Z,6.51
2023-03-03T23:05:20.719Z,6.49
2023-03-03T23:07:50.958Z,6.39
2023-03-03T23:10:21.829Z,6.31
2023-03-03T23:12:50.996Z,6.42
2023-03-03T23:15:21.304Z,6.45
2023-03-03T23:17:52.713Z,6.46
2023-03-03T23:20:24.341Z,6.51
2023-03-03T23:22:53.949Z,6.52
2023-03-03T23:25:26.614Z,6.59
2023-03-03T23:27:55.715Z,6.56
2023-03-03T23:30:25.291Z,6.54
2023-03-03T23:32:54.864Z,6.56
2023-03-03T23:35:23.916Z,6.58
2023-03-03T23:37:53.192Z,6.59
2023-03-03T23:40:22.228Z,6.60
2023-03-03T23:42:53.256Z,6.48
2023-03-03T23:45:22.595Z,6.55
2023-03-03T23:47:51.901Z,6.49
2023-03-03T23:50:21.412Z,6.49
2023-03-03T23:52:51.880Z,6.49
2023-03-03T23:55:21.214Z,6.54
2023-03-03T23:57:51.808Z,6.60
